sensor_id;sensor_type;location;lat;lon;timestamp;P1;durP1;ratioP1;P2;durP2;ratioP2
8411;SDS011;4243;49.296;11.348;2023-04-25T00:01:12;116.80;;;2.70;;
8411;SDS011;4243;49.296;11.348;2023-04-25T00:03:39;117.67;;;2.87;;
8411;SDS011;4243;49.296;11.348;2023-04-25T00:06:06;115.30;;;2.70;;
8411;SDS011;4243;49.296;11.348;2023-04-25T00:08:34;116.17;;;2.73;;
8411;SDS011;4243;49.296;11.348;2023-04-25T00:11:01;117.87;;;2.87;;
8411;SDS011;4243;49.296;11.348;2023-04-25T00:13:29;117.07;;;2.77;;
8411;SDS011;4243;49.296;11.348;2023-04-25T00:15:56;117.93;;;2.80;;
8411;SDS011;4243;49.296;11.348;2023-04-25T00:18:24;117.57;;;2.80;;
8411;SDS011;4243;49.296;11.348;2023-04-25T00:20:51;118.10;;;2.77;;
8411;SDS011;4243;49.296;11.348;2023-04-25T00:23:18;117.87;;;2.80;;
8411;SDS011;4243;49.296;11.348;2023-04-25T00:25:45;116.77;;;2.70;;
8411;SDS011;4243;49.296;11.348;2023-04-25T00:28:16;117.57;;;2.80;;
8411;SDS011;4243;49.296;11.348;2023-04-25T00:30:43;117.57;;;2.80;;
8411;SDS011;4243;49.296;11.348;2023-04-25T00:33:10;117.47;;;2.80;;
8411;SDS011;4243;49.296;11.348;2023-04-25T00:35:37;117.00;;;2.73;;
8411;SDS011;4243;49.296;11.348;2023-04-25T00:38:04;117.27;;;2.77;;
8411;SDS011;4243;49.296;11.348;2023-04-25T00:40:32;117.37;;;2.70;;
8411;SDS011;4243;49.296;11.348;2023-04-25T00:42:59;117.33;;;2.80;;
8411;SDS011;4243;49.296;11.348;2023-04-25T00:45:30;115.87;;;2.77;;
8411;SDS011;4243;49.296;11.348;2023-04-25T00:47:57;117.10;;;2.70;;
8411;SDS011;4243;49.296;11.348;2023-04-25T00:50:24;117.37;;;2.77;;
8411;SDS011;4243;49.296;11.348;2023-04-25T00:52:52;117.03;;;2.83;;
8411;SDS011;4243;49.296;11.348;2023-04-25T00:55:19;117.30;;;2.80;;
8411;SDS011;4243;49.296;11.348;2023-04-25T00:57:47;117.80;;;2.80;;
8411;SDS011;4243;49.296;11.348;2023-04-25T01:00:15;117.50;;;2.70;;
8411;SDS011;4243;49.296;11.348;2023-04-25T01:02:43;116.50;;;2.80;;
8411;SDS011;4243;49.296;11.348;2023-04-25T01:05:12;117.87;;;2.90;;
8411;SDS011;4243;49.296;11.348;2023-04-25T01:07:39;117.87;;;2.80;;
8411;SDS011;4243;49.296;11.348;2023-04-25T01:10:07;117.27;;;2.70;;
8411;SDS011;4243;49.296;11.348;2023-04-25T01:12:36;117.33;;;2.80;;
8411;SDS011;4243;49.296;11.348;2023-04-25T01:15:04;116.80;;;2.80;;
8411;SDS011;4243;49.296;11.348;2023-04-25T01:17:31;117.77;;;2.80;;
8411;SDS011;4243;49.296;11.348;2023-04-25T01:20:04;117.03;;;2.70;;
8411;SDS011;4243;49.296;11.348;2023-04-25T01:22:33;116.73;;;2.77;;
8411;SDS011;4243;49.296;11.348;2023-04-25T01:25:01;117.10;;;2.80;;
8411;SDS011;4243;49.296;11.348;2023-04-25T01:27:29;115.73;;;2.80;;
8411;SDS011;4243;49.296;11.348;2023-04-25T01:29:57;117.27;;;2.70;;
8411;SDS011;4243;49.296;11.348;2023-04-25T01:32:24;117.13;;;2.77;;
8411;SDS011;4243;49.296;11.348;2023-04-25T01:34:53;117.07;;;2.70;;
8411;SDS011;4243;49.296;11.348;2023-04-25T01:37:21;117.80;;;2.90;;
8411;SDS011;4243;49.296;11.348;2023-04-25T01:39:48;116.20;;;2.80;;
8411;SDS011;4243;49.296;11.348;2023-04-25T01:42:16;117.57;;;2.70;;
8411;SDS011;4243;49.296;11.348;2023-04-25T01:44:44;117.27;;;2.70;;
8411;SDS011;4243;49.296;11.348;2023-04-25T01:47:11;117.10;;;2.73;;
8411;SDS011;4243;49.296;11.348;2023-04-25T01:49:39;115.77;;;2.70;;
8411;SDS011;4243;49.296;11.348;2023-04-25T01:52:06;117.00;;;2.80;;
8411;SDS011;4243;49.296;11.348;2023-04-25T01:54:34;117.37;;;2.70;;
8411;SDS011;4243;49.296;11.348;2023-04-25T01:57:02;116.87;;;2.70;;
8411;SDS011;4243;49.296;11.348;2023-04-25T01:59:32;116.60;;;2.70;;
8411;SDS011;4243;49.296;11.348;2023-04-25T02:02:14;117.00;;;2.77;;
8411;SDS011;4243;49.296;11.348;2023-04-25T02:04:42;117.37;;;2.80;;
8411;SDS011;4243;49.296;11.348;2023-04-25T02:07:09;117.47;;;2.67;;
8411;SDS011;4243;49.296;11.348;2023-04-25T02:09:46;116.97;;;2.70;;
8411;SDS011;4243;49.296;11.348;2023-04-25T02:12:15;116.77;;;2.70;;
8411;SDS011;4243;49.296;11.348;2023-04-25T02:14:57;115.87;;;2.70;;
8411;SDS011;4243;49.296;11.348;2023-04-25T02:17:34;116.97;;;2.70;;
8411;SDS011;4243;49.296;11.348;2023-04-25T02:20:02;117.07;;;2.70;;
8411;SDS011;4243;49.296;11.348;2023-04-25T02:22:29;116.13;;;2.70;;
8411;SDS011;4243;49.296;11.348;2023-04-25T02:24:56;117.67;;;2.70;;
8411;SDS011;4243;49.296;11.348;2023-04-25T02:27:24;116.67;;;2.80;;
8411;SDS011;4243;49.296;11.348;2023-04-25T02:29:51;116.77;;;2.70;;
8411;SDS011;4243;49.296;11.348;2023-04-25T02:32:18;117.27;;;2.70;;
8411;SDS011;4243;49.296;11.348;2023-04-25T02:34:46;116.60;;;2.70;;
8411;SDS011;4243;49.296;11.348;2023-04-25T02:37:14;114.77;;;2.70;;
8411;SDS011;4243;49.296;11.348;2023-04-25T02:39:44;117.27;;;2.70;;
8411;SDS011;4243;49.296;11.348;2023-04-25T02:42:11;117.13;;;2.70;;
8411;SDS011;4243;49.296;11.348;2023-04-25T02:44:38;116.60;;;2.70;;
8411;SDS011;4243;49.296;11.348;2023-04-25T02:47:06;117.37;;;2.70;;
8411;SDS011;4243;49.296;11.348;2023-04-25T02:49:33;116.90;;;2.70;;
8411;SDS011;4243;49.296;11.348;2023-04-25T02:52:01;116.10;;;2.70;;
8411;SDS011;4243;49.296;11.348;2023-04-25T02:54:29;117.37;;;2.73;;
8411;SDS011;4243;49.296;11.348;2023-04-25T02:56:59;117.20;;;2.70;;
8411;SDS011;4243;49.296;11.348;2023-04-25T02:59:31;116.70;;;2.80;;
8411;SDS011;4243;49.296;11.348;2023-04-25T03:01:58;117.43;;;2.83;;
8411;SDS011;4243;49.296;11.348;2023-04-25T03:04:26;117.47;;;2.77;;
8411;SDS011;4243;49.296;11.348;2023-04-25T03:06:54;117.17;;;2.80;;
8411;SDS011;4243;49.296;11.348;2023-04-25T03:09:21;116.97;;;2.80;;
8411;SDS011;4243;49.296;11.348;2023-04-25T03:11:50;117.27;;;2.77;;
8411;SDS011;4243;49.296;11.348;2023-04-25T03:14:18;116.47;;;2.70;;
8411;SDS011;4243;49.296;11.348;2023-04-25T03:16:45;117.70;;;2.90;;
8411;SDS011;4243;49.296;11.348;2023-04-25T03:19:12;116.50;;;2.73;;
8411;SDS011;4243;49.296;11.348;2023-04-25T03:21:42;117.20;;;2.80;;
8411;SDS011;4243;49.296;11.348;2023-04-25T03:24:11;116.60;;;2.70;;
8411;SDS011;4243;49.296;11.348;2023-04-25T03:26:39;117.20;;;2.80;;
8411;SDS011;4243;49.296;11.348;2023-04-25T03:29:08;116.93;;;2.80;;
8411;SDS011;4243;49.296;11.348;2023-04-25T03:31:37;117.00;;;2.70;;
8411;SDS011;4243;49.296;11.348;2023-04-25T03:34:04;117.17;;;2.70;;
8411;SDS011;4243;49.296;11.348;2023-04-25T03:36:31;116.90;;;2.80;;
8411;SDS011;4243;49.296;11.348;2023-04-25T03:38:59;116.67;;;2.80;;
8411;SDS011;4243;49.296;11.348;2023-04-25T03:41:29;117.37;;;2.70;;
8411;SDS011;4243;49.296;11.348;2023-04-25T03:44:02;116.50;;;2.80;;
8411;SDS011;4243;49.296;11.348;2023-04-25T03:46:29;117.87;;;2.80;;
8411;SDS011;4243;49.296;11.348;2023-04-25T03:48:57;117.47;;;2.90;;
8411;SDS011;4243;49.296;11.348;2023-04-25T03:51:38;115.97;;;2.80;;
8411;SDS011;4243;49.296;11.348;2023-04-25T03:54:06;117.77;;;2.87;;
8411;SDS011;4243;49.296;11.348;2023-04-25T03:56:36;116.90;;;2.77;;
8411;SDS011;4243;49.296;11.348;2023-04-25T03:59:14;117.30;;;2.90;;
8411;SDS011;4243;49.296;11.348;2023-04-25T04:01:41;116.97;;;2.80;;
8411;SDS011;4243;49.296;11.348;2023-04-25T04:04:08;117.30;;;2.77;;
8411;SDS011;4243;49.296;11.348;2023-04-25T04:06:36;117.30;;;2.83;;
8411;SDS011;4243;49.296;11.348;2023-04-25T04:09:10;116.93;;;2.77;;
8411;SDS011;4243;49.296;11.348;2023-04-25T04:11:41;117.67;;;2.90;;
8411;SDS011;4243;49.296;11.348;2023-04-25T04:14:09;116.37;;;2.80;;
8411;SDS011;4243;49.296;11.348;2023-04-25T04:16:40;117.57;;;2.80;;
8411;SDS011;4243;49.296;11.348;2023-04-25T04:19:08;117.00;;;2.80;;
8411;SDS011;4243;49.296;11.348;2023-04-25T04:21:36;117.33;;;2.80;;
8411;SDS011;4243;49.296;11.348;2023-04-25T04:24:04;117.00;;;2.80;;
8411;SDS011;4243;49.296;11.348;2023-04-25T04:26:42;117.37;;;2.90;;
8411;SDS011;4243;49.296;11.348;2023-04-25T04:29:27;117.40;;;2.80;;
8411;SDS011;4243;49.296;11.348;2023-04-25T04:31:59;117.20;;;2.90;;
8411;SDS011;4243;49.296;11.348;2023-04-25T04:34:28;116.80;;;2.70;;
8411;SDS011;4243;49.296;11.348;2023-04-25T04:36:55;116.87;;;2.80;;
8411;SDS011;4243;49.296;11.348;2023-04-25T04:39:24;116.90;;;2.70;;
8411;SDS011;4243;49.296;11.348;2023-04-25T04:42:06;116.60;;;2.70;;
8411;SDS011;4243;49.296;11.348;2023-04-25T04:44:53;116.17;;;2.70;;
8411;SDS011;4243;49.296;11.348;2023-04-25T04:47:33;117.27;;;2.70;;
8411;SDS011;4243;49.296;11.348;2023-04-25T04:50:13;117.23;;;2.70;;
8411;SDS011;4243;49.296;11.348;2023-04-25T04:53:01;116.97;;;2.70;;
8411;SDS011;4243;49.296;11.348;2023-04-25T04:55:45;117.03;;;2.77;;
8411;SDS011;4243;49.296;11.348;2023-04-25T04:58:29;117.30;;;2.70;;
8411;SDS011;4243;49.296;11.348;2023-04-25T05:01:06;117.27;;;2.70;;
8411;SDS011;4243;49.296;11.348;2023-04-25T05:03:52;116.67;;;2.70;;
8411;SDS011;4243;49.296;11.348;2023-04-25T05:06:53;117.60;;;2.80;;
8411;SDS011;4243;49.296;11.348;2023-04-25T05:09:42;117.37;;;2.80;;
8411;SDS011;4243;49.296;11.348;2023-04-25T05:12:27;116.77;;;2.73;;
8411;SDS011;4243;49.296;11.348;2023-04-25T05:15:10;117.37;;;2.77;;
8411;SDS011;4243;49.296;11.348;2023-04-25T05:18:00;116.87;;;2.70;;
8411;SDS011;4243;49.296;11.348;2023-04-25T05:20:58;117.27;;;2.70;;
8411;SDS011;4243;49.296;11.348;2023-04-25T05:23:55;117.27;;;2.70;;
8411;SDS011;4243;49.296;11.348;2023-04-25T05:26:42;117.20;;;2.77;;
8411;SDS011;4243;49.296;11.348;2023-04-25T05:29:25;116.40;;;2.70;;
8411;SDS011;4243;49.296;11.348;2023-04-25T05:32:00;116.97;;;2.70;;
8411;SDS011;4243;49.296;11.348;2023-04-25T05:34:28;116.77;;;2.70;;
8411;SDS011;4243;49.296;11.348;2023-04-25T05:37:00;116.97;;;2.67;;
8411;SDS011;4243;49.296;11.348;2023-04-25T05:39:29;116.90;;;2.73;;
8411;SDS011;4243;49.296;11.348;2023-04-25T05:42:26;115.50;;;2.60;;
8411;SDS011;4243;49.296;11.348;2023-04-25T05:45:02;116.90;;;2.73;;
8411;SDS011;4243;49.296;11.348;2023-04-25T05:47:36;116.27;;;2.70;;
8411;SDS011;4243;49.296;11.348;2023-04-25T05:50:08;116.97;;;2.70;;
8411;SDS011;4243;49.296;11.348;2023-04-25T05:52:58;117.33;;;2.67;;
8411;SDS011;4243;49.296;11.348;2023-04-25T05:55:32;117.03;;;2.70;;
8411;SDS011;4243;49.296;11.348;2023-04-25T05:58:05;116.80;;;2.77;;
8411;SDS011;4243;49.296;11.348;2023-04-25T06:00:33;116.77;;;2.70;;
8411;SDS011;4243;49.296;11.348;2023-04-25T06:03:01;115.97;;;2.70;;
8411;SDS011;4243;49.296;11.348;2023-04-25T06:05:28;115.57;;;2.70;;
8411;SDS011;4243;49.296;11.348;2023-04-25T06:07:58;116.00;;;2.70;;
8411;SDS011;4243;49.296;11.348;2023-04-25T06:10:25;117.17;;;2.60;;
8411;SDS011;4243;49.296;11.348;2023-04-25T06:12:52;115.80;;;2.60;;
8411;SDS011;4243;49.296;11.348;2023-04-25T06:15:21;116.90;;;2.67;;
8411;SDS011;4243;49.296;11.348;2023-04-25T06:18:00;114.77;;;2.70;;
8411;SDS011;4243;49.296;11.348;2023-04-25T06:20:27;115.67;;;2.67;;
8411;SDS011;4243;49.296;11.348;2023-04-25T06:22:57;116.27;;;2.70;;
8411;SDS011;4243;49.296;11.348;2023-04-25T06:25:47;116.97;;;2.70;;
8411;SDS011;4243;49.296;11.348;2023-04-25T06:28:14;116.87;;;2.70;;
8411;SDS011;4243;49.296;11.348;2023-04-25T06:30:43;115.07;;;2.60;;
8411;SDS011;4243;49.296;11.348;2023-04-25T06:33:13;114.60;;;2.67;;
8411;SDS011;4243;49.296;11.348;2023-04-25T06:35:40;116.00;;;2.57;;
8411;SDS011;4243;49.296;11.348;2023-04-25T06:38:11;114.93;;;2.60;;
8411;SDS011;4243;49.296;11.348;2023-04-25T06:40:42;116.77;;;2.67;;
8411;SDS011;4243;49.296;11.348;2023-04-25T06:43:09;116.27;;;2.63;;
8411;SDS011;4243;49.296;11.348;2023-04-25T06:45:55;116.30;;;2.60;;
8411;SDS011;4243;49.296;11.348;2023-04-25T06:48:26;116.27;;;2.70;;
8411;SDS011;4243;49.296;11.348;2023-04-25T06:50:54;115.47;;;2.67;;
8411;SDS011;4243;49.296;11.348;2023-04-25T06:53:23;115.63;;;2.63;;
8411;SDS011;4243;49.296;11.348;2023-04-25T06:55:56;114.77;;;2.50;;
8411;SDS011;4243;49.296;11.348;2023-04-25T06:58:29;114.73;;;2.60;;
8411;SDS011;4243;49.296;11.348;2023-04-25T07:01:19;115.40;;;2.60;;
8411;SDS011;4243;49.296;11.348;2023-04-25T07:03:46;115.07;;;2.50;;
8411;SDS011;4243;49.296;11.348;2023-04-25T07:06:16;115.47;;;2.60;;
8411;SDS011;4243;49.296;11.348;2023-04-25T07:08:44;116.30;;;2.60;;
8411;SDS011;4243;49.296;11.348;2023-04-25T07:11:11;115.90;;;2.63;;
8411;SDS011;4243;49.296;11.348;2023-04-25T07:13:39;115.20;;;2.67;;
8411;SDS011;4243;49.296;11.348;2023-04-25T07:16:06;116.47;;;2.63;;
8411;SDS011;4243;49.296;11.348;2023-04-25T07:18:35;116.37;;;2.67;;
8411;SDS011;4243;49.296;11.348;2023-04-25T07:21:02;116.40;;;2.60;;
8411;SDS011;4243;49.296;11.348;2023-04-25T07:23:32;114.97;;;2.60;;
8411;SDS011;4243;49.296;11.348;2023-04-25T07:26:05;117.07;;;2.60;;
8411;SDS011;4243;49.296;11.348;2023-04-25T07:28:33;116.37;;;2.60;;
8411;SDS011;4243;49.296;11.348;2023-04-25T07:31:01;117.17;;;2.63;;
8411;SDS011;4243;49.296;11.348;2023-04-25T07:33:31;116.10;;;2.63;;
8411;SDS011;4243;49.296;11.348;2023-04-25T07:35:59;116.00;;;2.67;;
8411;SDS011;4243;49.296;11.348;2023-04-25T07:38:26;115.37;;;2.57;;
8411;SDS011;4243;49.296;11.348;2023-04-25T07:40:54;116.97;;;2.60;;
8411;SDS011;4243;49.296;11.348;2023-04-25T07:43:21;116.83;;;2.70;;
8411;SDS011;4243;49.296;11.348;2023-04-25T07:45:54;114.93;;;2.67;;
8411;SDS011;4243;49.296;11.348;2023-04-25T07:48:24;116.77;;;2.70;;
8411;SDS011;4243;49.296;11.348;2023-04-25T07:50:52;116.60;;;2.70;;
8411;SDS011;4243;49.296;11.348;2023-04-25T07:53:20;116.30;;;2.63;;
8411;SDS011;4243;49.296;11.348;2023-04-25T07:55:54;116.43;;;2.60;;
8411;SDS011;4243;49.296;11.348;2023-04-25T07:58:21;116.50;;;2.67;;
8411;SDS011;4243;49.296;11.348;2023-04-25T08:03:51;116.17;;;2.70;;
8411;SDS011;4243;49.296;11.348;2023-04-25T08:06:22;117.30;;;2.73;;
8411;SDS011;4243;49.296;11.348;2023-04-25T08:09:07;116.87;;;2.60;;
8411;SDS011;4243;49.296;11.348;2023-04-25T08:11:38;116.97;;;2.70;;
8411;SDS011;4243;49.296;11.348;2023-04-25T08:14:06;116.97;;;2.60;;
8411;SDS011;4243;49.296;11.348;2023-04-25T08:16:34;116.20;;;2.70;;
8411;SDS011;4243;49.296;11.348;2023-04-25T08:19:02;116.20;;;2.70;;
8411;SDS011;4243;49.296;11.348;2023-04-25T08:21:29;115.37;;;2.70;;
8411;SDS011;4243;49.296;11.348;2023-04-25T08:24:00;116.40;;;2.70;;
8411;SDS011;4243;49.296;11.348;2023-04-25T08:26:33;116.37;;;2.70;;
8411;SDS011;4243;49.296;11.348;2023-04-25T08:29:01;115.93;;;2.73;;
8411;SDS011;4243;49.296;11.348;2023-04-25T08:31:28;115.70;;;2.70;;
8411;SDS011;4243;49.296;11.348;2023-04-25T08:33:59;114.87;;;2.63;;
8411;SDS011;4243;49.296;11.348;2023-04-25T08:36:32;116.93;;;2.73;;
8411;SDS011;4243;49.296;11.348;2023-04-25T08:39:17;116.97;;;2.70;;
8411;SDS011;4243;49.296;11.348;2023-04-25T08:42:05;115.57;;;2.67;;
8411;SDS011;4243;49.296;11.348;2023-04-25T08:44:34;116.43;;;2.77;;
8411;SDS011;4243;49.296;11.348;2023-04-25T08:47:05;114.10;;;2.60;;
8411;SDS011;4243;49.296;11.348;2023-04-25T08:49:40;117.20;;;2.63;;
8411;SDS011;4243;49.296;11.348;2023-04-25T08:52:13;116.57;;;2.70;;
8411;SDS011;4243;49.296;11.348;2023-04-25T08:54:43;116.67;;;2.80;;
8411;SDS011;4243;49.296;11.348;2023-04-25T08:57:15;114.50;;;2.80;;
8411;SDS011;4243;49.296;11.348;2023-04-25T08:59:46;115.17;;;2.73;;
8411;SDS011;4243;49.296;11.348;2023-04-25T09:02:15;117.07;;;2.77;;
8411;SDS011;4243;49.296;11.348;2023-04-25T09:04:47;116.87;;;2.60;;
8411;SDS011;4243;49.296;11.348;2023-04-25T09:07:16;115.07;;;2.70;;
8411;SDS011;4243;49.296;11.348;2023-04-25T09:09:47;116.10;;;2.57;;
8411;SDS011;4243;49.296;11.348;2023-04-25T09:12:20;114.73;;;2.60;;
8411;SDS011;4243;49.296;11.348;2023-04-25T09:15:00;115.13;;;2.47;;
8411;SDS011;4243;49.296;11.348;2023-04-25T09:18:08;115.57;;;2.50;;
8411;SDS011;4243;49.296;11.348;2023-04-25T09:20:42;114.90;;;2.40;;
8411;SDS011;4243;49.296;11.348;2023-04-25T09:23:29;115.63;;;2.50;;
8411;SDS011;4243;49.296;11.348;2023-04-25T09:25:56;115.60;;;2.50;;
8411;SDS011;4243;49.296;11.348;2023-04-25T09:28:24;115.87;;;2.50;;
8411;SDS011;4243;49.296;11.348;2023-04-25T09:30:57;115.77;;;2.40;;
8411;SDS011;4243;49.296;11.348;2023-04-25T09:33:32;115.87;;;2.50;;
8411;SDS011;4243;49.296;11.348;2023-04-25T09:36:05;116.27;;;2.67;;
8411;SDS011;4243;49.296;11.348;2023-04-25T09:38:54;115.07;;;2.37;;
8411;SDS011;4243;49.296;11.348;2023-04-25T09:41:31;115.17;;;2.37;;
8411;SDS011;4243;49.296;11.348;2023-04-25T09:44:00;115.97;;;2.40;;
8411;SDS011;4243;49.296;11.348;2023-04-25T09:46:35;115.53;;;2.07;;
8411;SDS011;4243;49.296;11.348;2023-04-25T09:49:06;115.77;;;2.13;;
8411;SDS011;4243;49.296;11.348;2023-04-25T09:51:56;115.40;;;2.13;;
8411;SDS011;4243;49.296;11.348;2023-04-25T09:54:30;115.00;;;2.20;;
8411;SDS011;4243;49.296;11.348;2023-04-25T09:57:11;114.90;;;2.17;;
8411;SDS011;4243;49.296;11.348;2023-04-25T09:59:48;114.67;;;2.10;;
8411;SDS011;4243;49.296;11.348;2023-04-25T10:02:24;115.70;;;2.10;;
8411;SDS011;4243;49.296;11.348;2023-04-25T10:04:59;115.13;;;2.03;;
8411;SDS011;4243;49.296;11.348;2023-04-25T10:07:37;114.97;;;2.20;;
8411;SDS011;4243;49.296;11.348;2023-04-25T10:10:10;114.97;;;2.10;;
8411;SDS011;4243;49.296;11.348;2023-04-25T10:12:39;114.93;;;2.23;;
8411;SDS011;4243;49.296;11.348;2023-04-25T10:15:09;115.00;;;2.10;;
8411;SDS011;4243;49.296;11.348;2023-04-25T10:17:37;115.20;;;2.27;;
8411;SDS011;4243;49.296;11.348;2023-04-25T10:20:06;114.83;;;2.07;;
8411;SDS011;4243;49.296;11.348;2023-04-25T10:22:38;115.07;;;2.17;;
8411;SDS011;4243;49.296;11.348;2023-04-25T10:25:11;114.80;;;2.00;;
8411;SDS011;4243;49.296;11.348;2023-04-25T10:27:39;114.77;;;2.07;;
8411;SDS011;4243;49.296;11.348;2023-04-25T10:30:10;114.40;;;2.00;;
8411;SDS011;4243;49.296;11.348;2023-04-25T10:32:42;114.77;;;2.03;;
8411;SDS011;4243;49.296;11.348;2023-04-25T10:38:03;114.80;;;2.13;;
8411;SDS011;4243;49.296;11.348;2023-04-25T10:40:32;114.40;;;2.13;;
8411;SDS011;4243;49.296;11.348;2023-04-25T10:46:01;115.60;;;2.07;;
8411;SDS011;4243;49.296;11.348;2023-04-25T10:48:56;115.80;;;2.47;;
8411;SDS011;4243;49.296;11.348;2023-04-25T10:51:27;116.37;;;2.40;;
8411;SDS011;4243;49.296;11.348;2023-04-25T10:54:18;116.10;;;2.50;;
8411;SDS011;4243;49.296;11.348;2023-04-25T10:56:48;115.57;;;2.47;;
8411;SDS011;4243;49.296;11.348;2023-04-25T10:59:17;116.00;;;2.57;;
8411;SDS011;4243;49.296;11.348;2023-04-25T11:01:46;116.50;;;2.50;;
8411;SDS011;4243;49.296;11.348;2023-04-25T11:04:22;116.30;;;2.50;;
8411;SDS011;4243;49.296;11.348;2023-04-25T11:07:03;116.10;;;2.57;;
8411;SDS011;4243;49.296;11.348;2023-04-25T11:09:40;115.90;;;2.33;;
8411;SDS011;4243;49.296;11.348;2023-04-25T11:12:07;115.30;;;2.17;;
8411;SDS011;4243;49.296;11.348;2023-04-25T11:14:37;115.17;;;2.30;;
8411;SDS011;4243;49.296;11.348;2023-04-25T11:17:06;115.27;;;2.33;;
8411;SDS011;4243;49.296;11.348;2023-04-25T11:19:33;115.20;;;2.20;;
8411;SDS011;4243;49.296;11.348;2023-04-25T11:22:01;115.40;;;2.20;;
8411;SDS011;4243;49.296;11.348;2023-04-25T11:27:00;115.60;;;2.20;;
8411;SDS011;4243;49.296;11.348;2023-04-25T11:29:30;115.50;;;2.27;;
8411;SDS011;4243;49.296;11.348;2023-04-25T11:32:00;115.83;;;2.30;;
8411;SDS011;4243;49.296;11.348;2023-04-25T11:34:28;115.83;;;2.30;;
8411;SDS011;4243;49.296;11.348;2023-04-25T11:36:59;115.47;;;2.30;;
8411;SDS011;4243;49.296;11.348;2023-04-25T11:39:30;115.60;;;2.20;;
8411;SDS011;4243;49.296;11.348;2023-04-25T11:41:57;115.90;;;2.30;;
8411;SDS011;4243;49.296;11.348;2023-04-25T11:44:26;115.40;;;2.20;;
8411;SDS011;4243;49.296;11.348;2023-04-25T11:46:56;116.07;;;2.40;;
8411;SDS011;4243;49.296;11.348;2023-04-25T11:49:24;115.77;;;2.30;;
8411;SDS011;4243;49.296;11.348;2023-04-25T11:51:57;115.80;;;2.20;;
8411;SDS011;4243;49.296;11.348;2023-04-25T11:54:25;115.77;;;2.20;;
8411;SDS011;4243;49.296;11.348;2023-04-25T11:56:52;116.17;;;2.20;;
8411;SDS011;4243;49.296;11.348;2023-04-25T11:59:22;115.50;;;2.30;;
8411;SDS011;4243;49.296;11.348;2023-04-25T12:01:51;115.97;;;2.30;;
8411;SDS011;4243;49.296;11.348;2023-04-25T12:04:22;115.63;;;2.37;;
8411;SDS011;4243;49.296;11.348;2023-04-25T12:06:54;115.87;;;2.27;;
8411;SDS011;4243;49.296;11.348;2023-04-25T12:09:29;115.70;;;2.20;;
8411;SDS011;4243;49.296;11.348;2023-04-25T12:11:59;115.90;;;2.30;;
8411;SDS011;4243;49.296;11.348;2023-04-25T12:14:32;115.70;;;2.30;;
8411;SDS011;4243;49.296;11.348;2023-04-25T12:17:04;115.60;;;2.30;;
8411;SDS011;4243;49.296;11.348;2023-04-25T12:19:35;115.80;;;2.33;;
8411;SDS011;4243;49.296;11.348;2023-04-25T12:22:19;116.40;;;2.50;;
8411;SDS011;4243;49.296;11.348;2023-04-25T12:24:50;116.47;;;2.43;;
8411;SDS011;4243;49.296;11.348;2023-04-25T12:27:19;116.27;;;2.40;;
8411;SDS011;4243;49.296;11.348;2023-04-25T12:29:56;116.37;;;2.40;;
8411;SDS011;4243;49.296;11.348;2023-04-25T12:32:24;115.93;;;2.40;;
8411;SDS011;4243;49.296;11.348;2023-04-25T12:34:52;115.93;;;2.33;;
8411;SDS011;4243;49.296;11.348;2023-04-25T12:37:20;115.90;;;2.40;;
8411;SDS011;4243;49.296;11.348;2023-04-25T12:39:47;115.23;;;2.30;;
8411;SDS011;4243;49.296;11.348;2023-04-25T12:42:14;115.90;;;2.30;;
8411;SDS011;4243;49.296;11.348;2023-04-25T12:44:42;115.73;;;2.27;;
8411;SDS011;4243;49.296;11.348;2023-04-25T12:47:09;115.40;;;2.30;;
8411;SDS011;4243;49.296;11.348;2023-04-25T12:49:36;115.27;;;2.30;;
8411;SDS011;4243;49.296;11.348;2023-04-25T12:52:04;115.17;;;2.30;;
8411;SDS011;4243;49.296;11.348;2023-04-25T12:54:31;115.10;;;2.30;;
8411;SDS011;4243;49.296;11.348;2023-04-25T12:56:59;114.90;;;2.20;;
8411;SDS011;4243;49.296;11.348;2023-04-25T12:59:28;115.67;;;2.40;;
8411;SDS011;4243;49.296;11.348;2023-04-25T13:01:56;115.37;;;2.27;;
8411;SDS011;4243;49.296;11.348;2023-04-25T13:04:23;115.87;;;2.30;;
8411;SDS011;4243;49.296;11.348;2023-04-25T13:06:51;115.73;;;2.27;;
8411;SDS011;4243;49.296;11.348;2023-04-25T13:09:19;116.17;;;2.30;;
8411;SDS011;4243;49.296;11.348;2023-04-25T13:11:46;115.77;;;2.33;;
8411;SDS011;4243;49.296;11.348;2023-04-25T13:14:13;115.90;;;2.30;;
8411;SDS011;4243;49.296;11.348;2023-04-25T13:16:41;115.60;;;2.30;;
8411;SDS011;4243;49.296;11.348;2023-04-25T13:19:08;115.80;;;2.30;;
8411;SDS011;4243;49.296;11.348;2023-04-25T13:21:37;115.97;;;2.30;;
8411;SDS011;4243;49.296;11.348;2023-04-25T13:24:05;116.07;;;2.27;;
8411;SDS011;4243;49.296;11.348;2023-04-25T13:26:33;114.17;;;2.30;;
8411;SDS011;4243;49.296;11.348;2023-04-25T13:29:00;116.03;;;2.30;;
8411;SDS011;4243;49.296;11.348;2023-04-25T13:31:31;116.13;;;2.30;;
8411;SDS011;4243;49.296;11.348;2023-04-25T13:33:58;115.80;;;2.40;;
8411;SDS011;4243;49.296;11.348;2023-04-25T13:36:25;115.77;;;2.40;;
8411;SDS011;4243;49.296;11.348;2023-04-25T13:38:53;115.67;;;2.30;;
8411;SDS011;4243;49.296;11.348;2023-04-25T13:41:21;115.67;;;2.40;;
8411;SDS011;4243;49.296;11.348;2023-04-25T13:43:48;115.87;;;2.37;;
8411;SDS011;4243;49.296;11.348;2023-04-25T13:46:15;115.20;;;2.33;;
8411;SDS011;4243;49.296;11.348;2023-04-25T13:48:45;115.37;;;2.20;;
8411;SDS011;4243;49.296;11.348;2023-04-25T13:51:15;115.50;;;2.30;;
8411;SDS011;4243;49.296;11.348;2023-04-25T13:53:43;115.37;;;2.30;;
8411;SDS011;4243;49.296;11.348;2023-04-25T13:56:11;115.60;;;2.37;;
8411;SDS011;4243;49.296;11.348;2023-04-25T13:58:39;115.60;;;2.40;;
8411;SDS011;4243;49.296;11.348;2023-04-25T14:01:06;116.07;;;2.33;;
8411;SDS011;4243;49.296;11.348;2023-04-25T14:03:34;115.80;;;2.30;;
8411;SDS011;4243;49.296;11.348;2023-04-25T14:06:01;115.37;;;2.40;;
8411;SDS011;4243;49.296;11.348;2023-04-25T14:08:30;115.40;;;2.30;;
8411;SDS011;4243;49.296;11.348;2023-04-25T14:10:57;115.60;;;2.30;;
8411;SDS011;4243;49.296;11.348;2023-04-25T14:13:25;115.97;;;2.30;;
8411;SDS011;4243;49.296;11.348;2023-04-25T14:15:53;115.87;;;2.30;;
8411;SDS011;4243;49.296;11.348;2023-04-25T14:18:20;115.77;;;2.30;;
8411;SDS011;4243;49.296;11.348;2023-04-25T14:20:47;115.70;;;2.30;;
8411;SDS011;4243;49.296;11.348;2023-04-25T14:23:14;115.77;;;2.20;;
8411;SDS011;4243;49.296;11.348;2023-04-25T14:25:43;116.03;;;2.40;;
8411;SDS011;4243;49.296;11.348;2023-04-25T14:28:10;115.97;;;2.30;;
8411;SDS011;4243;49.296;11.348;2023-04-25T14:30:38;115.83;;;2.40;;
8411;SDS011;4243;49.296;11.348;2023-04-25T14:33:05;115.20;;;2.30;;
8411;SDS011;4243;49.296;11.348;2023-04-25T14:35:32;116.07;;;2.40;;
8411;SDS011;4243;49.296;11.348;2023-04-25T14:37:59;115.77;;;2.40;;
8411;SDS011;4243;49.296;11.348;2023-04-25T14:40:26;116.37;;;2.50;;
8411;SDS011;4243;49.296;11.348;2023-04-25T14:42:53;116.07;;;2.37;;
8411;SDS011;4243;49.296;11.348;2023-04-25T14:45:21;115.40;;;2.50;;
8411;SDS011;4243;49.296;11.348;2023-04-25T14:47:48;116.60;;;2.40;;
8411;SDS011;4243;49.296;11.348;2023-04-25T14:50:15;115.60;;;2.57;;
8411;SDS011;4243;49.296;11.348;2023-04-25T14:52:42;116.67;;;2.53;;
8411;SDS011;4243;49.296;11.348;2023-04-25T14:55:11;116.10;;;2.43;;
8411;SDS011;4243;49.296;11.348;2023-04-25T14:57:39;115.70;;;2.40;;
8411;SDS011;4243;49.296;11.348;2023-04-25T15:00:06;115.97;;;2.37;;
8411;SDS011;4243;49.296;11.348;2023-04-25T15:02:36;115.97;;;2.33;;
8411;SDS011;4243;49.296;11.348;2023-04-25T15:05:03;116.07;;;2.40;;
8411;SDS011;4243;49.296;11.348;2023-04-25T15:07:31;115.90;;;2.37;;